createdAt,value
2019-06-01T00:01:58.531Z,5.72
2019-06-01T00:04:26.194Z,5.37
2019-06-01T00:06:54.987Z,5.87
2019-06-01T00:09:23.390Z,6.25
2019-06-01T00:11:50.410Z,5.30
2019-06-01T00:14:17.467Z,5.93
2019-06-01T00:16:45.882Z,5.75
2019-06-01T00:19:11.766Z,5.85
2019-06-01T00:21:39.485Z,5.78
2019-06-01T00:24:06.397Z,5.85
2019-06-01T00:26:33.334Z,5.68
2019-06-01T00:29:00.233Z,6.80
2019-06-01T00:31:27.153Z,6.30
2019-06-01T00:33:54.875Z,6.78
2019-06-01T00:36:21.921Z,6.53
2019-06-01T00:38:49.934Z,6.43
2019-06-01T00:41:15.968Z,6.43
2019-06-01T00:43:44.130Z,6.57
2019-06-01T00:46:09.907Z,6.35
2019-06-01T00:48:37.116Z,6.35
2019-06-01T00:51:04.058Z,6.85
2019-06-01T00:53:31.117Z,7.00
2019-06-01T00:55:58.110Z,6.85
2019-06-01T00:58:25.049Z,7.82
2019-06-01T01:00:53.435Z,7.20
2019-06-01T01:03:19.453Z,7.30
2019-06-01T01:05:47.089Z,7.37
2019-06-01T01:08:13.769Z,6.85
2019-06-01T01:10:40.757Z,6.60
2019-06-01T01:13:10.414Z,6.97
2019-06-01T01:15:37.468Z,7.80
2019-06-01T01:18:06.101Z,7.70
2019-06-01T01:20:33.149Z,7.50
2019-06-01T01:23:00.179Z,8.13
2019-06-01T01:25:27.507Z,7.78
2019-06-01T01:27:54.849Z,7.62
2019-06-01T01:30:25.875Z,7.95
2019-06-01T01:32:53.584Z,8.07
2019-06-01T01:35:19.996Z,8.25
2019-06-01T01:37:47.751Z,8.10
2019-06-01T01:40:14.065Z,7.93
2019-06-01T01:42:40.998Z,8.48
2019-06-01T01:45:07.985Z,8.47
2019-06-01T01:47:35.349Z,7.95
2019-06-01T01:50:03.092Z,8.10
2019-06-01T01:52:29.378Z,8.07
2019-06-01T01:54:56.817Z,8.57
2019-06-01T01:57:23.433Z,8.30
2019-06-01T01:59:51.290Z,7.87
2019-06-01T02:02:17.466Z,7.90
2019-06-01T02:04:44.369Z,7.57
2019-06-01T02:07:11.293Z,7.50
2019-06-01T02:09:38.369Z,6.53
2019-06-01T02:12:05.320Z,6.43
2019-06-01T02:14:32.364Z,6.10
2019-06-01T02:17:00.279Z,6.27
2019-06-01T02:19:26.408Z,5.80
2019-06-01T02:21:54.366Z,5.72
2019-06-01T02:24:20.463Z,5.10
2019-06-01T02:26:47.454Z,6.37
2019-06-01T02:29:14.458Z,6.33
2019-06-01T02:31:42.942Z,5.72
2019-06-01T02:34:08.553Z,5.62
2019-06-01T02:36:37.384Z,6.47
2019-06-01T02:39:05.268Z,6.65
2019-06-01T02:41:31.382Z,6.80
2019-06-01T02:43:59.116Z,6.70
2019-06-01T02:46:25.433Z,6.10
2019-06-01T02:48:52.498Z,5.97
2019-06-01T02:51:19.531Z,5.73
2019-06-01T02:53:46.581Z,6.43
2019-06-01T02:56:13.477Z,6.20
2019-06-01T02:58:40.471Z,6.43
2019-06-01T03:01:27.388Z,6.20
2019-06-01T03:03:54.542Z,6.20
2019-06-01T03:06:21.505Z,5.57
2019-06-01T03:08:48.629Z,5.63
2019-06-01T03:11:15.684Z,5.10
2019-06-01T03:13:42.678Z,5.03
2019-06-01T03:16:09.628Z,4.40
2019-06-01T03:18:36.560Z,4.60
2019-06-01T03:21:05.029Z,4.40
2019-06-01T03:23:30.656Z,5.30
2019-06-01T03:25:57.648Z,4.60
2019-06-01T03:28:24.712Z,5.37
2019-06-01T03:30:51.666Z,5.40
2019-06-01T03:33:18.675Z,4.50
2019-06-01T03:35:45.756Z,4.67
2019-06-01T03:38:12.753Z,4.77
2019-06-01T03:40:39.852Z,4.77
2019-06-01T03:43:07.236Z,4.07
2019-06-01T03:45:33.953Z,4.73
2019-06-01T03:48:00.862Z,4.93
2019-06-01T03:50:27.841Z,4.60
2019-06-01T03:52:54.891Z,5.10
2019-06-01T03:55:21.819Z,4.63
2019-06-01T03:57:48.788Z,4.33
2019-06-01T04:00:15.965Z,4.60
2019-06-01T04:02:42.873Z,4.93
2019-06-01T04:05:09.932Z,5.27
2019-06-01T04:07:38.954Z,4.47
2019-06-01T04:10:03.975Z,4.77
2019-06-01T04:12:30.971Z,3.90
2019-06-01T04:14:57.924Z,3.90
2019-06-01T04:17:24.916Z,3.60
2019-06-01T04:19:51.919Z,3.73
2019-06-01T04:22:20.858Z,3.80
2019-06-01T04:24:47.956Z,3.47
2019-06-01T04:27:17.871Z,3.70
2019-06-01T04:29:44.876Z,3.53
2019-06-01T04:32:12.860Z,4.00
2019-06-01T04:34:39.434Z,3.83
2019-06-01T04:37:07.668Z,3.77
2019-06-01T04:39:35.546Z,3.27
2019-06-01T04:42:03.486Z,3.40
2019-06-01T04:44:29.881Z,3.20
2019-06-01T04:46:56.922Z,2.80
2019-06-01T04:49:26.739Z,2.77
2019-06-01T04:51:54.405Z,2.70
2019-06-01T04:54:21.501Z,2.50
2019-06-01T04:56:48.497Z,2.37
2019-06-01T04:59:15.599Z,2.67
2019-06-01T05:01:43.495Z,2.67
2019-06-01T05:04:11.170Z,2.43
2019-06-01T05:06:39.240Z,2.50
2019-06-01T05:09:07.249Z,3.00
2019-06-01T05:11:33.301Z,2.80
2019-06-01T05:14:00.396Z,2.80
2019-06-01T05:16:27.471Z,2.70
2019-06-01T05:18:54.495Z,2.93
2019-06-01T05:21:21.542Z,2.67
2019-06-01T05:23:48.598Z,2.80
2019-06-01T05:26:17.483Z,2.73
2019-06-01T05:28:44.531Z,2.80
2019-06-01T05:31:16.747Z,2.93
2019-06-01T05:33:38.629Z,2.83
2019-06-01T05:36:05.681Z,2.80
2019-06-01T05:38:32.731Z,3.10
2019-06-01T05:40:59.640Z,2.92
2019-06-01T05:43:26.555Z,3.10
2019-06-01T05:45:53.576Z,3.13
2019-06-01T05:48:25.015Z,2.70
2019-06-01T05:50:47.663Z,3.05
2019-06-01T05:53:16.568Z,3.15
2019-06-01T05:55:42.482Z,3.00
2019-06-01T05:58:10.853Z,3.22
2019-06-01T06:00:38.468Z,3.23
2019-06-01T06:03:05.567Z,2.90
2019-06-01T06:05:32.513Z,3.58
2019-06-01T06:07:59.821Z,3.20
2019-06-01T06:10:26.729Z,3.00
2019-06-01T06:12:53.863Z,3.20
2019-06-01T06:15:21.808Z,3.62
2019-06-01T06:17:48.314Z,3.78
2019-06-01T06:20:15.975Z,3.47
2019-06-01T06:22:44.329Z,3.00
2019-06-01T06:25:14.239Z,3.10
2019-06-01T06:27:39.969Z,3.10
2019-06-01T06:30:07.557Z,2.83
2019-06-01T06:32:34.464Z,2.85
2019-06-01T06:35:01.504Z,2.60
2019-06-01T06:37:29.060Z,2.55
2019-06-01T06:39:56.056Z,2.58
2019-06-01T06:42:23.014Z,2.40
2019-06-01T06:44:50.512Z,2.33
2019-06-01T06:47:18.711Z,2.30
2019-06-01T06:49:45.384Z,2.33
2019-06-01T06:52:15.237Z,2.20
2019-06-01T06:54:44.640Z,2.45
2019-06-01T06:57:18.549Z,2.40
2019-06-01T06:59:45.621Z,2.70
2019-06-01T07:02:12.653Z,2.90
2019-06-01T07:04:45.285Z,2.72
2019-06-01T07:07:12.899Z,2.53
2019-06-01T07:09:39.947Z,3.25
2019-06-01T07:12:07.003Z,2.53
2019-06-01T07:14:33.887Z,2.65
2019-06-01T07:17:00.799Z,2.60
2019-06-01T07:19:27.948Z,2.75
2019-06-01T07:21:54.885Z,2.60
2019-06-01T07:24:21.935Z,3.22
2019-06-01T07:26:48.946Z,3.28
2019-06-01T07:29:17.664Z,2.80
2019-06-01T07:31:44.575Z,3.00
2019-06-01T07:34:26.849Z,2.95
2019-06-01T07:36:38.470Z,2.50
2019-06-01T07:39:05.448Z,2.87
2019-06-01T07:41:33.075Z,3.30
2019-06-01T07:43:59.649Z,3.10
2019-06-01T07:46:26.902Z,2.70
2019-06-01T07:48:53.526Z,2.50
2019-06-01T07:51:21.139Z,2.50
2019-06-01T07:53:48.051Z,2.65
2019-06-01T07:56:15.096Z,2.40
2019-06-01T07:58:42.090Z,2.78
2019-06-01T08:01:09.091Z,3.00
2019-06-01T08:03:36.083Z,2.45
2019-06-01T08:06:03.095Z,2.80
2019-06-01T08:08:31.402Z,3.33
2019-06-01T08:10:57.116Z,3.28
2019-06-01T08:13:24.012Z,2.92
2019-06-01T08:15:50.907Z,3.00
2019-06-01T08:18:17.918Z,2.60
2019-06-01T08:20:44.811Z,2.70
2019-06-01T08:23:11.716Z,2.12
2019-06-01T08:25:38.772Z,2.10
2019-06-01T08:28:06.094Z,2.08
2019-06-01T08:30:33.162Z,1.83
2019-06-01T08:33:00.212Z,1.77
2019-06-01T08:35:27.158Z,1.55
2019-06-01T08:37:54.208Z,1.30
2019-06-01T08:40:21.119Z,1.48
2019-06-01T08:42:48.014Z,1.65
2019-06-01T08:45:15.149Z,1.50
2019-06-01T08:47:42.155Z,1.60
2019-06-01T08:50:09.256Z,1.48
2019-06-01T08:52:36.294Z,1.60
2019-06-01T08:55:03.219Z,1.60
2019-06-01T08:57:30.401Z,1.90
2019-06-01T08:59:58.452Z,1.70
2019-06-01T09:02:26.586Z,1.77
2019-06-01T09:04:53.387Z,1.90
2019-06-01T09:07:20.303Z,2.05
2019-06-01T09:09:47.276Z,1.77
2019-06-01T09:12:14.423Z,1.92
2019-06-01T09:14:41.316Z,1.70
2019-06-01T09:17:08.315Z,1.70
2019-06-01T09:19:35.772Z,1.70
2019-06-01T09:22:02.520Z,1.77
2019-06-01T09:24:29.770Z,1.70
2019-06-01T09:26:56.515Z,1.80
2019-06-01T09:29:23.464Z,1.98
2019-06-01T09:31:50.510Z,1.70
2019-06-01T09:34:17.553Z,2.10
2019-06-01T09:36:45.012Z,2.00
2019-06-01T09:39:11.965Z,2.00
2019-06-01T09:41:38.856Z,2.00
2019-06-01T09:44:06.444Z,2.03
2019-06-01T09:46:34.053Z,1.90
2019-06-01T09:49:00.330Z,2.00
2019-06-01T09:51:29.362Z,2.37
2019-06-01T09:53:54.826Z,2.25
2019-06-01T09:56:21.752Z,2.08
2019-06-01T09:58:49.478Z,1.87
2019-06-01T10:01:16.418Z,1.58
2019-06-01T10:03:43.329Z,1.70
2019-06-01T10:06:13.963Z,1.55
2019-06-01T10:08:38.182Z,1.55
2019-06-01T10:11:04.828Z,1.75
2019-06-01T10:13:33.411Z,1.60
2019-06-01T10:15:59.237Z,1.80
2019-06-01T10:18:27.024Z,1.70
2019-06-01T10:20:53.098Z,1.77
2019-06-01T10:23:20.007Z,1.60
2019-06-01T10:25:46.915Z,1.60
2019-06-01T10:28:13.837Z,1.50
2019-06-01T10:30:41.815Z,1.42
2019-06-01T10:33:07.729Z,1.67
2019-06-01T10:35:35.041Z,1.60
2019-06-01T10:38:02.054Z,1.50
2019-06-01T10:40:28.962Z,1.37
2019-06-01T10:42:55.937Z,1.40
2019-06-01T10:45:22.986Z,1.40
2019-06-01T10:47:50.042Z,1.48
2019-06-01T10:50:17.686Z,1.60
2019-06-01T10:52:43.966Z,1.40
2019-06-01T10:55:10.937Z,1.62
2019-06-01T10:57:38.511Z,1.77
2019-06-01T11:00:04.943Z,1.60
2019-06-01T11:02:32.519Z,1.60
2019-06-01T11:04:58.967Z,1.60
2019-06-01T11:07:25.856Z,1.60
2019-06-01T11:09:52.741Z,1.65
2019-06-01T11:12:19.654Z,1.37
2019-06-01T11:14:46.650Z,1.70
2019-06-01T11:17:13.707Z,1.60
2019-06-01T11:19:42.042Z,1.58
2019-06-01T11:22:09.332Z,1.70
2019-06-01T11:24:37.350Z,1.70
2019-06-01T11:27:03.424Z,1.50
2019-06-01T11:29:30.379Z,1.48
2019-06-01T11:31:57.378Z,1.42
2019-06-01T11:34:24.580Z,1.75
2019-06-01T11:37:05.163Z,1.50
2019-06-01T11:39:18.845Z,1.60
2019-06-01T11:41:45.748Z,1.40
2019-06-01T11:44:12.675Z,1.50
2019-06-01T11:46:41.298Z,1.40
2019-06-01T11:49:08.207Z,1.50
2019-06-01T11:51:35.111Z,1.50
2019-06-01T11:54:02.037Z,1.42
2019-06-01T11:56:29.042Z,1.50
2019-06-01T11:58:56.084Z,1.60
2019-06-01T12:01:23.158Z,1.50
2019-06-01T12:03:50.303Z,1.33
2019-06-01T12:06:17.741Z,1.55
2019-06-01T12:08:46.189Z,1.30
2019-06-01T12:11:11.680Z,1.30
2019-06-01T12:13:38.582Z,1.40
2019-06-01T12:16:05.471Z,1.40
2019-06-01T12:18:32.370Z,1.60
2019-06-01T12:20:59.268Z,1.60
2019-06-01T12:23:26.263Z,1.20
2019-06-01T12:25:53.316Z,1.37
2019-06-01T12:28:20.360Z,1.50
2019-06-01T12:30:47.943Z,1.83
2019-06-01T12:33:14.387Z,1.40
2019-06-01T12:35:42.003Z,1.40
2019-06-01T12:38:08.303Z,1.50
2019-06-01T12:40:35.229Z,1.30
2019-06-01T12:43:02.129Z,1.50
2019-06-01T12:45:29.023Z,1.60
2019-06-01T12:47:58.579Z,1.60
2019-06-01T12:50:23.080Z,1.20
2019-06-01T12:52:50.135Z,1.60
2019-06-01T12:55:17.177Z,1.50
2019-06-01T12:57:44.883Z,1.50
2019-06-01T13:00:12.209Z,1.33
2019-06-01T13:02:40.204Z,1.40
2019-06-01T13:05:06.567Z,1.50
2019-06-01T13:07:33.490Z,1.60
2019-06-01T13:10:00.396Z,1.30
2019-06-01T13:12:27.290Z,1.50
2019-06-01T13:14:54.445Z,1.50
2019-06-01T13:17:21.351Z,1.65
2019-06-01T13:19:49.491Z,1.50
2019-06-01T13:22:15.355Z,1.42
2019-06-01T13:24:43.536Z,1.40
2019-06-01T13:27:09.382Z,1.73
2019-06-01T13:29:36.677Z,1.60
2019-06-01T13:32:03.725Z,1.45
2019-06-01T13:34:34.289Z,1.60
2019-06-01T13:37:00.245Z,1.50
2019-06-01T13:39:27.238Z,1.50
2019-06-01T13:41:54.276Z,1.50
2019-06-01T13:44:21.323Z,1.50
2019-06-01T13:46:49.217Z,1.65
2019-06-01T13:49:15.191Z,1.70
2019-06-01T13:51:42.123Z,1.62
2019-06-01T13:54:09.109Z,1.58
2019-06-01T13:56:37.929Z,1.60
2019-06-01T13:59:05.228Z,1.40
2019-06-01T14:01:32.141Z,1.62
2019-06-01T14:03:59.036Z,1.33
2019-06-01T14:06:25.940Z,1.50
2019-06-01T14:08:53.191Z,1.27
2019-06-01T14:11:19.823Z,1.80
2019-06-01T14:13:47.447Z,1.60
2019-06-01T14:16:13.797Z,1.45
2019-06-01T14:18:41.438Z,1.40
2019-06-01T14:21:08.493Z,1.75
2019-06-01T14:23:35.386Z,1.60
2019-06-01T14:26:03.879Z,1.35
2019-06-01T14:28:30.888Z,1.60
2019-06-01T14:30:59.560Z,1.60
2019-06-01T14:33:26.721Z,1.58
2019-06-01T14:35:54.621Z,1.60
2019-06-01T14:38:20.680Z,1.67
2019-06-01T14:40:48.840Z,1.60
2019-06-01T14:43:14.575Z,1.52
2019-06-01T14:45:41.473Z,1.52
2019-06-01T14:48:08.386Z,1.60
2019-06-01T14:50:35.374Z,1.48
2019-06-01T14:53:02.386Z,1.40
2019-06-01T14:55:29.280Z,1.50
2019-06-01T14:57:56.218Z,1.33
2019-06-01T15:00:23.172Z,1.50
2019-06-01T15:02:50.128Z,1.30
2019-06-01T15:05:17.111Z,1.60
2019-06-01T15:07:44.150Z,1.55
2019-06-01T15:10:11.075Z,1.80
2019-06-01T15:12:38.003Z,1.50
2019-06-01T15:15:05.679Z,1.50
2019-06-01T15:17:32.570Z,1.67
2019-06-01T15:19:59.538Z,1.60
2019-06-01T15:22:34.810Z,1.42
2019-06-01T15:25:05.540Z,1.62
2019-06-01T15:27:34.104Z,1.27
2019-06-01T15:30:20.916Z,1.50
2019-06-01T15:33:10.367Z,1.85
2019-06-01T15:35:56.110Z,1.70
2019-06-01T15:38:23.056Z,1.70
2019-06-01T15:40:50.178Z,1.60
2019-06-01T15:43:17.076Z,1.60
2019-06-01T15:45:43.975Z,1.90
2019-06-01T15:48:11.397Z,1.73
2019-06-01T15:50:38.696Z,1.65
2019-06-01T15:53:08.818Z,1.50
2019-06-01T15:55:35.745Z,1.55
2019-06-01T15:58:02.987Z,1.55
2019-06-01T16:00:29.640Z,1.75
2019-06-01T16:02:56.880Z,1.50
2019-06-01T16:05:23.792Z,1.70
2019-06-01T16:07:50.837Z,1.58
2019-06-01T16:10:17.736Z,1.90
2019-06-01T16:12:44.629Z,1.60
2019-06-01T16:15:11.674Z,1.50
2019-06-01T16:17:38.757Z,1.60
2019-06-01T16:20:05.696Z,1.67
2019-06-01T16:22:32.672Z,1.60
2019-06-01T16:25:00.290Z,1.60
2019-06-01T16:27:26.713Z,1.40
2019-06-01T16:29:54.585Z,1.60
2019-06-01T16:32:20.761Z,1.48
2019-06-01T16:34:47.696Z,1.70
2019-06-01T16:37:16.311Z,1.50
2019-06-01T16:39:58.300Z,1.65
2019-06-01T16:42:10.175Z,1.92
2019-06-01T16:44:38.822Z,1.70
2019-06-01T16:47:06.110Z,1.75
2019-06-01T16:49:33.022Z,1.80
2019-06-01T16:52:03.295Z,1.60
2019-06-01T16:54:29.641Z,1.90
2019-06-01T16:56:57.952Z,1.80
2019-06-01T16:59:23.772Z,2.00
2019-06-01T17:01:50.823Z,2.22
2019-06-01T17:04:17.879Z,2.30
2019-06-01T17:06:50.687Z,2.17
2019-06-01T17:09:17.748Z,2.10
2019-06-01T17:11:45.130Z,2.28
2019-06-01T17:14:12.045Z,2.35
2019-06-01T17:16:39.054Z,2.03
2019-06-01T17:19:07.161Z,1.90
2019-06-01T17:21:33.042Z,2.00
2019-06-01T17:24:00.104Z,2.10
2019-06-01T17:26:27.110Z,1.70
2019-06-01T17:28:54.094Z,2.03
2019-06-01T17:31:21.158Z,1.92
2019-06-01T17:33:48.236Z,1.90
2019-06-01T17:36:15.241Z,1.90
2019-06-01T17:38:42.290Z,1.80
2019-06-01T17:41:09.193Z,1.83
2019-06-01T17:43:36.484Z,1.80
2019-06-01T17:46:03.443Z,1.80
2019-06-01T17:48:30.423Z,2.08
2019-06-01T17:50:57.429Z,2.00
2019-06-01T17:53:24.472Z,2.25
2019-06-01T17:55:51.524Z,2.83
2019-06-01T17:58:18.581Z,2.03
2019-06-01T18:00:45.636Z,2.05
2019-06-01T18:03:12.609Z,2.03
2019-06-01T18:05:39.563Z,2.05
2019-06-01T18:08:07.875Z,2.17
2019-06-01T18:10:33.666Z,2.03
2019-06-01T18:13:01.972Z,2.00
2019-06-01T18:15:27.712Z,2.00
2019-06-01T18:17:54.754Z,2.00
2019-06-01T18:20:21.803Z,2.17
2019-06-01T18:22:48.857Z,1.90
2019-06-01T18:25:18.160Z,2.28
2019-06-01T18:27:45.206Z,2.42
2019-06-01T18:30:12.813Z,2.10
2019-06-01T18:32:39.502Z,2.47
2019-06-01T18:35:07.109Z,2.33
2019-06-01T18:37:33.446Z,2.60
2019-06-01T18:40:00.853Z,2.60
2019-06-01T18:42:27.847Z,3.03
2019-06-01T18:44:54.850Z,2.60
2019-06-01T18:47:31.819Z,2.78
2019-06-01T18:49:48.854Z,2.78
2019-06-01T18:52:15.901Z,2.70
2019-06-01T18:54:42.893Z,2.60
2019-06-01T18:57:17.559Z,2.70
2019-06-01T18:59:36.887Z,2.90
2019-06-01T19:02:04.288Z,2.60
2019-06-01T19:04:30.889Z,2.80
2019-06-01T19:06:58.495Z,2.33
2019-06-01T19:09:25.540Z,2.45
2019-06-01T19:11:52.588Z,2.20
2019-06-01T19:14:19.594Z,2.37
2019-06-01T19:16:46.585Z,2.78
2019-06-01T19:19:14.525Z,2.50
2019-06-01T19:21:40.576Z,2.25
2019-06-01T19:24:08.401Z,2.62
2019-06-01T19:26:34.490Z,2.40
2019-06-01T19:29:01.389Z,3.53
2019-06-01T19:31:28.281Z,4.80
2019-06-01T19:33:55.206Z,5.32
2019-06-01T19:36:22.117Z,4.35
2019-06-01T19:38:49.201Z,4.80
2019-06-01T19:41:17.467Z,4.62
2019-06-01T19:43:43.145Z,7.05
2019-06-01T19:46:13.955Z,6.45
2019-06-01T19:48:41.058Z,8.55
2019-06-01T19:51:08.653Z,8.00
2019-06-01T19:53:34.951Z,8.25
2019-06-01T19:56:01.855Z,7.85
2019-06-01T19:58:28.752Z,7.03
2019-06-01T20:00:55.670Z,7.50
2019-06-01T20:03:23.867Z,7.62
2019-06-01T20:05:49.605Z,7.35
2019-06-01T20:08:16.496Z,7.50
2019-06-01T20:10:45.092Z,5.93
2019-06-01T20:13:13.014Z,5.22
2019-06-01T20:15:39.163Z,4.50
2019-06-01T20:18:07.207Z,3.90
2019-06-01T20:20:34.100Z,3.80
2019-06-01T20:23:03.868Z,3.30
2019-06-01T20:25:30.816Z,4.00
2019-06-01T20:27:57.786Z,3.62
2019-06-01T20:30:24.724Z,3.60
2019-06-01T20:32:51.607Z,3.30
2019-06-01T20:35:18.538Z,3.58
2019-06-01T20:37:45.464Z,3.80
2019-06-01T20:40:12.463Z,3.53
2019-06-01T20:42:39.381Z,3.10
2019-06-01T20:45:06.341Z,3.60
2019-06-01T20:47:33.235Z,3.30
2019-06-01T20:50:00.267Z,3.55
2019-06-01T20:52:27.219Z,3.42
2019-06-01T20:54:54.263Z,3.37
2019-06-01T20:57:21.624Z,3.37
2019-06-01T20:59:48.610Z,3.28
2019-06-01T21:02:15.797Z,3.58
2019-06-01T21:04:42.541Z,3.60
2019-06-01T21:07:09.450Z,3.50
2019-06-01T21:09:36.453Z,3.70
2019-06-01T21:12:03.507Z,3.60
2019-06-01T21:14:30.549Z,3.80
2019-06-01T21:16:57.600Z,3.47
2019-06-01T21:19:24.655Z,3.17
2019-06-01T21:21:58.295Z,3.58
2019-06-01T21:24:25.298Z,3.70
2019-06-01T21:26:52.266Z,3.40
2019-06-01T21:29:19.200Z,3.55
2019-06-01T21:31:47.988Z,3.60
2019-06-01T21:34:15.123Z,3.60
2019-06-01T21:36:42.138Z,3.90
2019-06-01T21:39:09.232Z,3.50
2019-06-01T21:41:36.175Z,3.90
2019-06-01T21:44:03.233Z,3.90
2019-06-01T21:46:30.283Z,3.97
2019-06-01T21:48:58.763Z,4.03
2019-06-01T21:51:26.034Z,4.00
2019-06-01T21:53:52.705Z,4.55
2019-06-01T21:56:20.790Z,4.75
2019-06-01T21:58:46.595Z,4.78
2019-06-01T22:01:13.692Z,4.80
2019-06-01T22:03:40.744Z,4.40
2019-06-01T22:06:08.228Z,4.55
2019-06-01T22:08:35.148Z,4.30
2019-06-01T22:11:02.198Z,4.40
2019-06-01T22:13:29.656Z,4.60
2019-06-01T22:15:56.698Z,4.55
2019-06-01T22:18:23.834Z,4.53
2019-06-01T22:20:50.731Z,4.72
2019-06-01T22:23:17.988Z,4.70
2019-06-01T22:25:46.063Z,4.10
2019-06-01T22:28:12.973Z,4.40
2019-06-01T22:30:39.959Z,4.45
2019-06-01T22:33:06.962Z,4.70
2019-06-01T22:35:33.860Z,4.45
2019-06-01T22:38:00.757Z,4.50
2019-06-01T22:40:27.724Z,4.25
2019-06-01T22:42:54.745Z,4.87
2019-06-01T22:45:22.110Z,5.05
2019-06-01T22:47:48.851Z,4.70
2019-06-01T22:50:15.766Z,5.05
2019-06-01T22:52:42.651Z,5.57
2019-06-01T22:55:13.679Z,4.82
2019-06-01T22:57:43.110Z,5.28
2019-06-01T23:00:07.773Z,5.30
2019-06-01T23:02:34.722Z,5.22
2019-06-01T23:05:01.799Z,5.22
2019-06-01T23:07:29.300Z,4.97
2019-06-01T23:09:55.803Z,5.07
2019-06-01T23:12:23.314Z,5.12
2019-06-01T23:14:49.691Z,5.50
2019-06-01T23:17:16.603Z,5.87
2019-06-01T23:19:43.551Z,6.12
2019-06-01T23:22:10.598Z,6.15
2019-06-01T23:24:37.650Z,5.87
2019-06-01T23:27:04.577Z,6.18
2019-06-01T23:29:32.440Z,6.75
2019-06-01T23:31:58.623Z,6.80
2019-06-01T23:34:28.554Z,6.10
2019-06-01T23:36:56.477Z,6.60
2019-06-01T23:39:24.576Z,6.87
2019-06-01T23:41:51.848Z,6.57
2019-06-01T23:44:18.854Z,6.72
2019-06-01T23:46:47.539Z,6.72
2019-06-01T23:49:14.462Z,6.60
2019-06-01T23:51:41.352Z,6.20
2019-06-01T23:54:09.033Z,6.72
2019-06-01T23:56:35.979Z,5.97
2019-06-01T23:59:02.926Z,6.43
